Tonic Sea — D5AZ8 — position and weather

sailwx.info

Track history (hours):
 
Tides and Currents Weather Stations Pressure Air Temp Water Temp Dewpoint Dewpoint Depression Visibility Wind Speed Wind Dir Waves Ship Positions

Tonic Sea

Last reported at 2017-Dec-11 10:18 UTC. Time now 2017-Dec-11 19:01 UTC.
Position N 55°21' E 011°02'.

Length 229 m; draft 14.4 m.

Type: Cargo ship. MMSI: 636015479.

Date/timePositionNaut miles runAvg speedWind from/ knotsBaromVisibWave heightAir tempDewpointWater temp
2017-Dec-11 10:18N 55°21' E 011°02'710.3
2017-Dec-11 09:35N 55°14' E 011°06'1 9.7
2017-Dec-11 09:30N 55°13' E 011°06'5 9.6
2017-Dec-11 09:01N 55°10' E 011°00'510.0
2017-Dec-11 08:31N 55°05' E 010°60'5 9.8
2017-Dec-11 08:00N 54°60' E 010°59'5 9.8
2017-Dec-11 07:31N 54°56' E 010°53'510.7
2017-Dec-11 07:01N 54°51' E 010°50'510.6
2017-Dec-11 06:31N 54°46' E 010°48'510.1
2017-Dec-11 06:00N 54°41' E 010°47'511.0
2017-Dec-11 05:31N 54°38' E 010°55'511.0
2017-Dec-11 05:01N 54°36' E 011°04'510.9
2017-Dec-11 04:31N 54°35' E 011°13'611.1
2017-Dec-11 04:00N 54°33' E 011°21'611.1
2017-Dec-11 03:30N 54°30' E 011°30'1210.9
2017-Dec-11 02:26N 54°26' E 011°49'511.0
2017-Dec-11 02:00N 54°26' E 011°57'510.9
2017-Dec-11 01:31N 54°26' E 012°06'5 9.8
2017-Dec-11 01:01N 54°29' E 012°12'6110.2
2017-Dec-10 19:00N 54°60' E 013°44'610.2
2017-Dec-10 18:26N 55°02' E 013°53'9 9.7
2017-Dec-10 17:30N 55°06' E 014°07'5 9.5
2017-Dec-10 17:00N 55°10' E 014°12'5 9.6
2017-Dec-10 16:30N 55°13' E 014°18'5 9.8
2017-Dec-10 16:00N 55°17' E 014°23'6 9.9
2017-Dec-10 15:26N 55°22' E 014°29'6 9.6
2017-Dec-10 14:51N 55°26' E 014°35'4 9.7
2017-Dec-10 14:24N 55°28' E 014°42'4 9.6
2017-Dec-10 14:00N 55°30' E 014°48'6 9.4
2017-Dec-10 13:22N 55°33' E 014°57'3 9.4
2017-Dec-10 13:00N 55°34' E 015°03'5 9.2
2017-Dec-10 12:31N 55°36' E 015°10'5 9.1
2017-Dec-10 12:01N 55°38' E 015°17'5 9.2
2017-Dec-10 11:31N 55°39' E 015°25'4 8.8
2017-Dec-10 11:01N 55°40' E 015°33'4 8.7
2017-Dec-10 10:30N 55°41' E 015°40'4 8.6
2017-Dec-10 10:00N 55°42' E 015°48'4 8.5
2017-Dec-10 09:30N 55°44' E 015°55'4 8.8
2017-Dec-10 09:01N 55°45' E 016°02'5 9.1
2017-Dec-10 08:31N 55°46' E 016°10'4 8.9
2017-Dec-10 08:00N 55°47' E 016°18'5 9.4
2017-Dec-10 07:30N 55°48' E 016°26'342 7.7
2017-Dec-08 11:09N 59°45' E 024°09'4 9.5
2017-Dec-08 10:41N 59°46' E 024°18'2 9.4
2017-Dec-08 10:30N 59°46' E 024°21'5 9.3
2017-Dec-08 10:01N 59°48' E 024°30'5 9.6
2017-Dec-08 09:30N 59°48' E 024°39'510.8
2017-Dec-08 09:01N 59°49' E 024°50'5 9.5
2017-Dec-08 08:30N 59°50' E 024°59'4 8.2
2017-Dec-08 08:01N 59°51' E 025°07'5 9.5
2017-Dec-08 07:31N 59°52' E 025°16'8 9.7
2017-Dec-08 06:44N 59°53' E 025°31'2110.1
2017-Dec-08 04:38N 59°58' E 026°12'1 9.1
2017-Dec-08 04:30N 59°59' E 026°14'510.2
2017-Dec-08 04:01N 59°60' E 026°24'5 9.7
2017-Dec-08 03:30N 60°01' E 026°34'5 9.8
2017-Dec-08 03:01N 60°01' E 026°43'612.3
2017-Dec-08 02:30N 59°60' E 026°55'5 9.7
2017-Dec-08 02:00N 59°60' E 027°05'4 8.0
2017-Dec-08 01:31N 60°02' E 027°12'4 8.8
2017-Dec-08 01:00N 60°04' E 027°20'4 8.7
2017-Dec-08 00:30N 60°07' E 027°27'510.1
2017-Dec-08 00:00N 60°09' E 027°36'5 9.4
2017-Dec-07 23:30N 60°12' E 027°44'4 7.7
2017-Dec-07 23:01N 60°11' E 027°52'5 9.6
2017-Dec-07 22:31N 60°10' E 028°01'510.8
2017-Dec-07 22:00N 60°09' E 028°12'5 9.3
2017-Dec-07 21:31N 60°07' E 028°20'510.1
2017-Dec-07 21:01N 60°04' E 028°28'4 8.9
2017-Dec-07 20:31N 60°01' E 028°35'5 9.7
2017-Dec-07 20:01N 59°56' E 028°35'5 9.1
2017-Dec-07 19:31N 59°53' E 028°30'611.8
2017-Dec-07 19:00N 59°47' E 028°25'5 9.7
2017-Dec-07 18:31N 59°43' E 028°25'1 2.5
2017-Dec-07 18:01N 59°41' E 028°25'0 0.1
2017-Dec-07 17:27N 59°41' E 028°25'0 0.0
2017-Dec-07 16:59N 59°41' E 028°25'0 0.0
2017-Dec-07 16:29N 59°41' E 028°25'0 0.0
2017-Dec-07 15:59N 59°41' E 028°25'0 0.0
2017-Dec-07 15:29N 59°41' E 028°25'0 0.0
2017-Dec-07 14:59N 59°41' E 028°25'0 0.0
2017-Dec-07 14:29N 59°41' E 028°25'0 0.0
2017-Dec-07 13:56N 59°41' E 028°25'0 0.0
2017-Dec-07 13:29N 59°41' E 028°25'0 0.0
2017-Dec-07 12:59N 59°41' E 028°25'0 0.0
2017-Dec-07 12:29N 59°41' E 028°25'0 0.0
2017-Dec-07 11:59N 59°41' E 028°25'0 0.0
2017-Dec-07 11:29N 59°41' E 028°25'0 0.0
2017-Dec-07 10:59N 59°41' E 028°25'0 0.0
2017-Dec-07 10:29N 59°41' E 028°25'0 0.0
2017-Dec-07 09:59N 59°41' E 028°25'0 0.0
2017-Dec-07 09:29N 59°41' E 028°25'0 0.0
2017-Dec-07 08:59N 59°41' E 028°25'0 0.0
2017-Dec-07 08:29N 59°41' E 028°25'0 0.0
2017-Dec-07 07:59N 59°41' E 028°25'0 0.0
2017-Dec-07 07:29N 59°41' E 028°25'0 0.0
2017-Dec-07 06:59N 59°41' E 028°25'0 0.0
2017-Dec-07 06:29N 59°41' E 028°25'0 0.0
2017-Dec-07 05:47N 59°41' E 028°25'0 0.0
2017-Dec-07 05:23N 59°41' E 028°25'0 0.0
2017-Dec-07 04:53N 59°41' E 028°25'0 0.0
2017-Dec-07 04:20N 59°41' E 028°25'0 0.0
2017-Dec-07 03:53N 59°41' E 028°25'0 0.0
2017-Dec-07 03:23N 59°41' E 028°25'0 0.0
2017-Dec-07 02:53N 59°41' E 028°25'0 0.0
2017-Dec-07 02:23N 59°41' E 028°25'0 0.0
2017-Dec-07 01:56N 59°41' E 028°25'0 0.0
2017-Dec-07 01:26N 59°41' E 028°25'0 0.0
2017-Dec-07 00:53N 59°41' E 028°25'0 0.0
2017-Dec-07 00:26N 59°41' E 028°25'0 0.0
2017-Dec-06 23:56N 59°41' E 028°25'0 0.0
2017-Dec-06 23:26N 59°41' E 028°25'0 0.0
2017-Dec-06 22:56N 59°41' E 028°25'0 0.0
2017-Dec-06 22:29N 59°41' E 028°25'0 0.0
2017-Dec-06 21:59N 59°41' E 028°25'0 0.0
2017-Dec-06 21:11N 59°41' E 028°25'0 0.0
2017-Dec-06 20:59N 59°41' E 028°25'  
2017-Dec-04 10:30N 59°56' E 028°37'0 0.0
2017-Dec-04 10:00N 59°56' E 028°37'0 0.0
2017-Dec-04 09:30N 59°56' E 028°37'0 0.0
2017-Dec-04 09:00N 59°56' E 028°37'0 0.0
2017-Dec-04 08:30N 59°56' E 028°37'0 0.0
2017-Dec-04 08:00N 59°56' E 028°37'0 0.0
2017-Dec-04 07:30N 59°56' E 028°37'0 0.0
2017-Dec-04 07:00N 59°56' E 028°37'0 0.1
2017-Dec-04 06:30N 59°56' E 028°37'0 0.0
2017-Dec-04 06:00N 59°56' E 028°37'0 0.0
2017-Dec-04 05:30N 59°56' E 028°37'0 0.0
2017-Dec-04 05:00N 59°56' E 028°37'0 0.0
2017-Dec-04 04:30N 59°56' E 028°37'0 0.0
2017-Dec-04 04:00N 59°56' E 028°37'0 0.0
2017-Dec-04 03:30N 59°56' E 028°37'0 0.0
2017-Dec-04 03:00N 59°56' E 028°37'0 0.0
2017-Dec-04 02:30N 59°56' E 028°37'0 0.0
2017-Dec-04 02:00N 59°56' E 028°37'0 0.0
2017-Dec-04 01:30N 59°56' E 028°37'0 0.0
2017-Dec-04 01:00N 59°56' E 028°37'0 0.0
2017-Dec-04 00:30N 59°56' E 028°37'0 0.0
2017-Dec-04 00:00N 59°56' E 028°37'0 0.0
2017-Dec-03 23:30N 59°56' E 028°37'0 0.0
2017-Dec-03 23:00N 59°56' E 028°37'0 0.0
2017-Dec-03 22:30N 59°56' E 028°37'0 0.0
2017-Dec-03 22:00N 59°56' E 028°37'0 0.0
2017-Dec-03 21:30N 59°56' E 028°37'0 0.0
2017-Dec-03 21:00N 59°56' E 028°37'0 0.0
2017-Dec-03 20:30N 59°56' E 028°37'0 0.0
2017-Dec-03 20:00N 59°56' E 028°37'0 0.0
2017-Dec-03 19:30N 59°56' E 028°37'0 0.0
2017-Dec-03 19:00N 59°56' E 028°37'0 0.0
2017-Dec-03 18:30N 59°56' E 028°37'0 0.0
2017-Dec-03 18:00N 59°56' E 028°37'0 0.0
2017-Dec-03 17:30N 59°56' E 028°37'0 0.0
2017-Dec-03 17:00N 59°56' E 028°37'0 0.0
2017-Dec-03 16:30N 59°56' E 028°37'0 0.0
2017-Dec-03 16:00N 59°56' E 028°37'0 0.0
2017-Dec-03 15:30N 59°56' E 028°37'0 0.0
2017-Dec-03 15:00N 59°56' E 028°37'0 0.0
2017-Dec-03 14:30N 59°56' E 028°37'0 0.0
2017-Dec-03 14:00N 59°56' E 028°37'0 0.0
2017-Dec-03 13:30N 59°56' E 028°37'0 0.0
2017-Dec-03 13:00N 59°56' E 028°37'0 0.0
2017-Dec-03 12:30N 59°56' E 028°37'0 0.0
2017-Dec-03 12:00N 59°56' E 028°37'0 0.0
2017-Dec-03 11:30N 59°56' E 028°37'0 0.0
2017-Dec-03 11:00N 59°56' E 028°37'0 0.0
2017-Dec-03 10:30N 59°56' E 028°37'0 0.0
2017-Dec-03 10:00N 59°56' E 028°37'0 0.0
2017-Dec-03 09:30N 59°56' E 028°37'0 0.0
2017-Dec-03 09:00N 59°56' E 028°37'0 0.0
2017-Dec-03 08:30N 59°56' E 028°37'0 0.0
2017-Dec-03 08:00N 59°56' E 028°37'0 0.0
2017-Dec-03 07:30N 59°56' E 028°37'0 0.0
2017-Dec-03 07:00N 59°56' E 028°37'0 0.0
2017-Dec-03 06:30N 59°56' E 028°37'0 0.0
2017-Dec-03 06:00N 59°56' E 028°37'0 0.0
2017-Dec-03 05:30N 59°56' E 028°37'0 0.0
2017-Dec-03 05:00N 59°56' E 028°37'0 0.0
2017-Dec-03 04:30N 59°56' E 028°37'0 0.0
2017-Dec-03 04:00N 59°56' E 028°37'0 0.0
2017-Dec-03 03:30N 59°56' E 028°37'0 0.0
2017-Dec-03 03:00N 59°56' E 028°37'0 0.0
2017-Dec-03 02:30N 59°56' E 028°37'0 0.0
2017-Dec-03 02:00N 59°56' E 028°37'0 0.0
2017-Dec-03 01:30N 59°56' E 028°37'0 0.0
2017-Dec-03 01:00N 59°56' E 028°37'0 0.0
2017-Dec-03 00:30N 59°56' E 028°37'0 0.0
2017-Dec-03 00:00N 59°56' E 028°37'0 0.0
2017-Dec-02 23:30N 59°56' E 028°37'0 0.0
2017-Dec-02 23:00N 59°56' E 028°37'0 0.0
2017-Dec-02 22:30N 59°56' E 028°37'0 0.0
2017-Dec-02 22:00N 59°56' E 028°37'0 0.0
2017-Dec-02 21:30N 59°56' E 028°37'0 0.0
2017-Dec-02 21:00N 59°56' E 028°37'0 0.0
2017-Dec-02 20:30N 59°56' E 028°37'0 0.0
2017-Dec-02 20:00N 59°56' E 028°37'0 0.0
2017-Dec-02 19:30N 59°56' E 028°37'0 0.0
2017-Dec-02 19:00N 59°56' E 028°37'0 0.0
2017-Dec-02 18:30N 59°56' E 028°37'0 0.0
2017-Dec-02 18:01N 59°56' E 028°37'0 0.0
2017-Dec-02 17:30N 59°56' E 028°37'0 0.0
2017-Dec-02 17:00N 59°56' E 028°37'0 0.0
2017-Dec-02 16:30N 59°56' E 028°37'0 0.0
2017-Dec-02 16:00N 59°56' E 028°37'0 0.0
2017-Dec-02 15:30N 59°56' E 028°37'0 0.0
2017-Dec-02 15:00N 59°56' E 028°37'0 0.2
2017-Dec-02 14:30N 59°56' E 028°37'0 0.1
2017-Dec-02 14:00N 59°56' E 028°37'0 0.0
2017-Dec-02 13:30N 59°56' E 028°37'0 0.0
2017-Dec-02 13:00N 59°56' E 028°37'0 0.0
2017-Dec-02 12:30N 59°56' E 028°37'0 0.0
2017-Dec-02 12:00N 59°56' E 028°37'0 0.0
2017-Dec-02 11:30N 59°56' E 028°37'0 0.0
2017-Dec-02 11:00N 59°56' E 028°37'0 0.0
2017-Dec-02 10:30N 59°56' E 028°37'0 0.0
2017-Dec-02 10:00N 59°56' E 028°37'0 0.0
2017-Dec-02 09:30N 59°56' E 028°37'0 0.0
2017-Dec-02 09:00N 59°56' E 028°37'0 0.0
2017-Dec-02 08:30N 59°56' E 028°37'0 0.0
2017-Dec-02 08:00N 59°56' E 028°37'0 0.0
2017-Dec-02 07:30N 59°56' E 028°37'0 0.0
2017-Dec-02 07:00N 59°56' E 028°37'0 0.0
2017-Dec-02 06:30N 59°56' E 028°37'0 0.2
2017-Dec-02 06:00N 59°56' E 028°37'0 0.1
2017-Dec-02 05:30N 59°56' E 028°37'0 0.0
2017-Dec-02 05:00N 59°56' E 028°37'0 0.0
2017-Dec-02 04:30N 59°56' E 028°37'0 0.0
2017-Dec-02 04:00N 59°56' E 028°37'0 0.0
2017-Dec-02 03:30N 59°56' E 028°37'0 0.0
2017-Dec-02 03:00N 59°56' E 028°37'0 0.0
2017-Dec-02 02:30N 59°56' E 028°37'0 0.0
2017-Dec-02 02:00N 59°56' E 028°37'0 0.0
2017-Dec-02 01:30N 59°56' E 028°37'0 0.0
2017-Dec-02 01:00N 59°56' E 028°37'0 0.0
2017-Dec-02 00:30N 59°56' E 028°37'0 0.0
2017-Dec-02 00:00N 59°56' E 028°37'0 0.0
2017-Dec-01 23:30N 59°56' E 028°37'0 0.0
2017-Dec-01 23:00N 59°56' E 028°37'0 0.0
2017-Dec-01 22:30N 59°56' E 028°37'0 0.0
2017-Dec-01 22:01N 59°56' E 028°37'0 0.0
2017-Dec-01 21:30N 59°56' E 028°37'0 0.0
2017-Dec-01 21:00N 59°56' E 028°37'0 0.0
2017-Dec-01 20:30N 59°56' E 028°37'0 0.0
2017-Dec-01 20:00N 59°56' E 028°37'0 0.0
2017-Dec-01 19:30N 59°56' E 028°37'0 0.0
2017-Dec-01 19:00N 59°56' E 028°37'0 0.0
2017-Dec-01 18:30N 59°56' E 028°37'0 0.0
2017-Dec-01 18:00N 59°56' E 028°37'0 0.0
2017-Dec-01 17:30N 59°56' E 028°37'0 0.0
2017-Dec-01 17:00N 59°56' E 028°37'0 0.0
2017-Dec-01 16:30N 59°56' E 028°37'0 0.0
2017-Dec-01 16:00N 59°56' E 028°37'0 0.0
2017-Dec-01 15:28N 59°56' E 028°37'0 0.0
2017-Dec-01 15:00N 59°56' E 028°37'0 0.0
2017-Dec-01 14:31N 59°56' E 028°37'0 0.0
2017-Dec-01 14:00N 59°56' E 028°37'0 0.0
2017-Dec-01 13:30N 59°56' E 028°37'0 0.0
2017-Dec-01 13:00N 59°56' E 028°37'0 0.0
2017-Dec-01 12:30N 59°56' E 028°37'0 0.0
2017-Dec-01 12:00N 59°56' E 028°37'0 0.0
2017-Dec-01 11:30N 59°56' E 028°37'0 0.0
2017-Dec-01 11:00N 59°56' E 028°37'0 0.0
2017-Dec-01 10:30N 59°56' E 028°37'  
Track history (hours):
 
Tides and Currents Weather Stations Pressure Air Temp Water Temp Dewpoint Dewpoint Depression Visibility Wind Speed Wind Dir Waves Ship Positions

Tonic Sea

Last reported at 2017-Dec-11 10:18 UTC. Time now 2017-Dec-11 19:01 UTC.
Position N 55°21' E 011°02'.

Length 229 m; draft 14.4 m.

Type: Cargo ship. MMSI: 636015479.

Date/timePositionNaut miles runAvg speedWind from/ knotsBaromVisibWave heightAir tempDewpointWater temp
2017-Dec-11 10:18N 55°21' E 011°02'710.3
2017-Dec-11 09:35N 55°14' E 011°06'1 9.7
2017-Dec-11 09:30N 55°13' E 011°06'5 9.6
2017-Dec-11 09:01N 55°10' E 011°00'510.0
2017-Dec-11 08:31N 55°05' E 010°60'5 9.8
2017-Dec-11 08:00N 54°60' E 010°59'5 9.8
2017-Dec-11 07:31N 54°56' E 010°53'510.7
2017-Dec-11 07:01N 54°51' E 010°50'510.6
2017-Dec-11 06:31N 54°46' E 010°48'510.1
2017-Dec-11 06:00N 54°41' E 010°47'511.0
2017-Dec-11 05:31N 54°38' E 010°55'511.0
2017-Dec-11 05:01N 54°36' E 011°04'510.9
2017-Dec-11 04:31N 54°35' E 011°13'611.1
2017-Dec-11 04:00N 54°33' E 011°21'611.1
2017-Dec-11 03:30N 54°30' E 011°30'1210.9
2017-Dec-11 02:26N 54°26' E 011°49'511.0
2017-Dec-11 02:00N 54°26' E 011°57'510.9
2017-Dec-11 01:31N 54°26' E 012°06'5 9.8
2017-Dec-11 01:01N 54°29' E 012°12'6110.2
2017-Dec-10 19:00N 54°60' E 013°44'610.2
2017-Dec-10 18:26N 55°02' E 013°53'9 9.7
2017-Dec-10 17:30N 55°06' E 014°07'5 9.5
2017-Dec-10 17:00N 55°10' E 014°12'5 9.6
2017-Dec-10 16:30N 55°13' E 014°18'5 9.8
2017-Dec-10 16:00N 55°17' E 014°23'6 9.9
2017-Dec-10 15:26N 55°22' E 014°29'6 9.6
2017-Dec-10 14:51N 55°26' E 014°35'4 9.7
2017-Dec-10 14:24N 55°28' E 014°42'4 9.6
2017-Dec-10 14:00N 55°30' E 014°48'6 9.4
2017-Dec-10 13:22N 55°33' E 014°57'3 9.4
2017-Dec-10 13:00N 55°34' E 015°03'5 9.2
2017-Dec-10 12:31N 55°36' E 015°10'5 9.1
2017-Dec-10 12:01N 55°38' E 015°17'5 9.2
2017-Dec-10 11:31N 55°39' E 015°25'4 8.8
2017-Dec-10 11:01N 55°40' E 015°33'4 8.7
2017-Dec-10 10:30N 55°41' E 015°40'4 8.6
2017-Dec-10 10:00N 55°42' E 015°48'4 8.5
2017-Dec-10 09:30N 55°44' E 015°55'4 8.8
2017-Dec-10 09:01N 55°45' E 016°02'5 9.1
2017-Dec-10 08:31N 55°46' E 016°10'4 8.9
2017-Dec-10 08:00N 55°47' E 016°18'5 9.4
2017-Dec-10 07:30N 55°48' E 016°26'342 7.7
2017-Dec-08 11:09N 59°45' E 024°09'4 9.5
2017-Dec-08 10:41N 59°46' E 024°18'2 9.4
2017-Dec-08 10:30N 59°46' E 024°21'5 9.3
2017-Dec-08 10:01N 59°48' E 024°30'5 9.6
2017-Dec-08 09:30N 59°48' E 024°39'510.8
2017-Dec-08 09:01N 59°49' E 024°50'5 9.5
2017-Dec-08 08:30N 59°50' E 024°59'4 8.2
2017-Dec-08 08:01N 59°51' E 025°07'5 9.5
2017-Dec-08 07:31N 59°52' E 025°16'8 9.7
2017-Dec-08 06:44N 59°53' E 025°31'2110.1
2017-Dec-08 04:38N 59°58' E 026°12'1 9.1
2017-Dec-08 04:30N 59°59' E 026°14'510.2
2017-Dec-08 04:01N 59°60' E 026°24'5 9.7
2017-Dec-08 03:30N 60°01' E 026°34'5 9.8
2017-Dec-08 03:01N 60°01' E 026°43'612.3
2017-Dec-08 02:30N 59°60' E 026°55'5 9.7
2017-Dec-08 02:00N 59°60' E 027°05'4 8.0
2017-Dec-08 01:31N 60°02' E 027°12'4 8.8
2017-Dec-08 01:00N 60°04' E 027°20'4 8.7
2017-Dec-08 00:30N 60°07' E 027°27'510.1
2017-Dec-08 00:00N 60°09' E 027°36'5 9.4
2017-Dec-07 23:30N 60°12' E 027°44'4 7.7
2017-Dec-07 23:01N 60°11' E 027°52'5 9.6
2017-Dec-07 22:31N 60°10' E 028°01'510.8
2017-Dec-07 22:00N 60°09' E 028°12'5 9.3
2017-Dec-07 21:31N 60°07' E 028°20'510.1
2017-Dec-07 21:01N 60°04' E 028°28'4 8.9
2017-Dec-07 20:31N 60°01' E 028°35'5 9.7
2017-Dec-07 20:01N 59°56' E 028°35'5 9.1
2017-Dec-07 19:31N 59°53' E 028°30'611.8
2017-Dec-07 19:00N 59°47' E 028°25'5 9.7
2017-Dec-07 18:31N 59°43' E 028°25'1 2.5
2017-Dec-07 18:01N 59°41' E 028°25'0 0.1
2017-Dec-07 17:27N 59°41' E 028°25'0 0.0
2017-Dec-07 16:59N 59°41' E 028°25'0 0.0
2017-Dec-07 16:29N 59°41' E 028°25'0 0.0
2017-Dec-07 15:59N 59°41' E 028°25'0 0.0
2017-Dec-07 15:29N 59°41' E 028°25'0 0.0
2017-Dec-07 14:59N 59°41' E 028°25'0 0.0
2017-Dec-07 14:29N 59°41' E 028°25'0 0.0
2017-Dec-07 13:56N 59°41' E 028°25'0 0.0
2017-Dec-07 13:29N 59°41' E 028°25'0 0.0
2017-Dec-07 12:59N 59°41' E 028°25'0 0.0
2017-Dec-07 12:29N 59°41' E 028°25'0 0.0
2017-Dec-07 11:59N 59°41' E 028°25'0 0.0
2017-Dec-07 11:29N 59°41' E 028°25'0 0.0
2017-Dec-07 10:59N 59°41' E 028°25'0 0.0
2017-Dec-07 10:29N 59°41' E 028°25'0 0.0
2017-Dec-07 09:59N 59°41' E 028°25'0 0.0
2017-Dec-07 09:29N 59°41' E 028°25'0 0.0
2017-Dec-07 08:59N 59°41' E 028°25'0 0.0
2017-Dec-07 08:29N 59°41' E 028°25'0 0.0
2017-Dec-07 07:59N 59°41' E 028°25'0 0.0
2017-Dec-07 07:29N 59°41' E 028°25'0 0.0
2017-Dec-07 06:59N 59°41' E 028°25'0 0.0
2017-Dec-07 06:29N 59°41' E 028°25'0 0.0
2017-Dec-07 05:47N 59°41' E 028°25'0 0.0
2017-Dec-07 05:23N 59°41' E 028°25'0 0.0
2017-Dec-07 04:53N 59°41' E 028°25'0 0.0
2017-Dec-07 04:20N 59°41' E 028°25'0 0.0
2017-Dec-07 03:53N 59°41' E 028°25'0 0.0
2017-Dec-07 03:23N 59°41' E 028°25'0 0.0
2017-Dec-07 02:53N 59°41' E 028°25'0 0.0
2017-Dec-07 02:23N 59°41' E 028°25'0 0.0
2017-Dec-07 01:56N 59°41' E 028°25'0 0.0
2017-Dec-07 01:26N 59°41' E 028°25'0 0.0
2017-Dec-07 00:53N 59°41' E 028°25'0 0.0
2017-Dec-07 00:26N 59°41' E 028°25'0 0.0
2017-Dec-06 23:56N 59°41' E 028°25'0 0.0
2017-Dec-06 23:26N 59°41' E 028°25'0 0.0
2017-Dec-06 22:56N 59°41' E 028°25'0 0.0
2017-Dec-06 22:29N 59°41' E 028°25'0 0.0
2017-Dec-06 21:59N 59°41' E 028°25'0 0.0
2017-Dec-06 21:11N 59°41' E 028°25'0 0.0
2017-Dec-06 20:59N 59°41' E 028°25'  
2017-Dec-04 10:30N 59°56' E 028°37'0 0.0
2017-Dec-04 10:00N 59°56' E 028°37'0 0.0
2017-Dec-04 09:30N 59°56' E 028°37'0 0.0
2017-Dec-04 09:00N 59°56' E 028°37'0 0.0
2017-Dec-04 08:30N 59°56' E 028°37'0 0.0
2017-Dec-04 08:00N 59°56' E 028°37'0 0.0
2017-Dec-04 07:30N 59°56' E 028°37'0 0.0
2017-Dec-04 07:00N 59°56' E 028°37'0 0.1
2017-Dec-04 06:30N 59°56' E 028°37'0 0.0
2017-Dec-04 06:00N 59°56' E 028°37'0 0.0
2017-Dec-04 05:30N 59°56' E 028°37'0 0.0
2017-Dec-04 05:00N 59°56' E 028°37'0 0.0
2017-Dec-04 04:30N 59°56' E 028°37'0 0.0
2017-Dec-04 04:00N 59°56' E 028°37'0 0.0
2017-Dec-04 03:30N 59°56' E 028°37'0 0.0
2017-Dec-04 03:00N 59°56' E 028°37'0 0.0
2017-Dec-04 02:30N 59°56' E 028°37'0 0.0
2017-Dec-04 02:00N 59°56' E 028°37'0 0.0
2017-Dec-04 01:30N 59°56' E 028°37'0 0.0
2017-Dec-04 01:00N 59°56' E 028°37'0 0.0
2017-Dec-04 00:30N 59°56' E 028°37'0 0.0
2017-Dec-04 00:00N 59°56' E 028°37'0 0.0
2017-Dec-03 23:30N 59°56' E 028°37'0 0.0
2017-Dec-03 23:00N 59°56' E 028°37'0 0.0
2017-Dec-03 22:30N 59°56' E 028°37'0 0.0
2017-Dec-03 22:00N 59°56' E 028°37'0 0.0
2017-Dec-03 21:30N 59°56' E 028°37'0 0.0
2017-Dec-03 21:00N 59°56' E 028°37'0 0.0
2017-Dec-03 20:30N 59°56' E 028°37'0 0.0
2017-Dec-03 20:00N 59°56' E 028°37'0 0.0
2017-Dec-03 19:30N 59°56' E 028°37'0 0.0
2017-Dec-03 19:00N 59°56' E 028°37'0 0.0
2017-Dec-03 18:30N 59°56' E 028°37'0 0.0
2017-Dec-03 18:00N 59°56' E 028°37'0 0.0
2017-Dec-03 17:30N 59°56' E 028°37'0 0.0
2017-Dec-03 17:00N 59°56' E 028°37'0 0.0
2017-Dec-03 16:30N 59°56' E 028°37'0 0.0
2017-Dec-03 16:00N 59°56' E 028°37'0 0.0
2017-Dec-03 15:30N 59°56' E 028°37'0 0.0
2017-Dec-03 15:00N 59°56' E 028°37'0 0.0
2017-Dec-03 14:30N 59°56' E 028°37'0 0.0
2017-Dec-03 14:00N 59°56' E 028°37'0 0.0
2017-Dec-03 13:30N 59°56' E 028°37'0 0.0
2017-Dec-03 13:00N 59°56' E 028°37'0 0.0
2017-Dec-03 12:30N 59°56' E 028°37'0 0.0
2017-Dec-03 12:00N 59°56' E 028°37'0 0.0
2017-Dec-03 11:30N 59°56' E 028°37'0 0.0
2017-Dec-03 11:00N 59°56' E 028°37'0 0.0
2017-Dec-03 10:30N 59°56' E 028°37'0 0.0
2017-Dec-03 10:00N 59°56' E 028°37'0 0.0
2017-Dec-03 09:30N 59°56' E 028°37'0 0.0
2017-Dec-03 09:00N 59°56' E 028°37'0 0.0
2017-Dec-03 08:30N 59°56' E 028°37'0 0.0
2017-Dec-03 08:00N 59°56' E 028°37'0 0.0
2017-Dec-03 07:30N 59°56' E 028°37'0 0.0
2017-Dec-03 07:00N 59°56' E 028°37'0 0.0
2017-Dec-03 06:30N 59°56' E 028°37'0 0.0
2017-Dec-03 06:00N 59°56' E 028°37'0 0.0
2017-Dec-03 05:30N 59°56' E 028°37'0 0.0
2017-Dec-03 05:00N 59°56' E 028°37'0 0.0
2017-Dec-03 04:30N 59°56' E 028°37'0 0.0
2017-Dec-03 04:00N 59°56' E 028°37'0 0.0
2017-Dec-03 03:30N 59°56' E 028°37'0 0.0
2017-Dec-03 03:00N 59°56' E 028°37'0 0.0
2017-Dec-03 02:30N 59°56' E 028°37'0 0.0
2017-Dec-03 02:00N 59°56' E 028°37'0 0.0
2017-Dec-03 01:30N 59°56' E 028°37'0 0.0
2017-Dec-03 01:00N 59°56' E 028°37'0 0.0
2017-Dec-03 00:30N 59°56' E 028°37'0 0.0
2017-Dec-03 00:00N 59°56' E 028°37'0 0.0
2017-Dec-02 23:30N 59°56' E 028°37'0 0.0
2017-Dec-02 23:00N 59°56' E 028°37'0 0.0
2017-Dec-02 22:30N 59°56' E 028°37'0 0.0
2017-Dec-02 22:00N 59°56' E 028°37'0 0.0
2017-Dec-02 21:30N 59°56' E 028°37'0 0.0
2017-Dec-02 21:00N 59°56' E 028°37'0 0.0
2017-Dec-02 20:30N 59°56' E 028°37'0 0.0
2017-Dec-02 20:00N 59°56' E 028°37'0 0.0
2017-Dec-02 19:30N 59°56' E 028°37'0 0.0
2017-Dec-02 19:00N 59°56' E 028°37'0 0.0
2017-Dec-02 18:30N 59°56' E 028°37'0 0.0
2017-Dec-02 18:01N 59°56' E 028°37'0 0.0
2017-Dec-02 17:30N 59°56' E 028°37'0 0.0
2017-Dec-02 17:00N 59°56' E 028°37'0 0.0
2017-Dec-02 16:30N 59°56' E 028°37'0 0.0
2017-Dec-02 16:00N 59°56' E 028°37'0 0.0
2017-Dec-02 15:30N 59°56' E 028°37'0 0.0
2017-Dec-02 15:00N 59°56' E 028°37'0 0.2
2017-Dec-02 14:30N 59°56' E 028°37'0 0.1
2017-Dec-02 14:00N 59°56' E 028°37'0 0.0
2017-Dec-02 13:30N 59°56' E 028°37'0 0.0
2017-Dec-02 13:00N 59°56' E 028°37'0 0.0
2017-Dec-02 12:30N 59°56' E 028°37'0 0.0
2017-Dec-02 12:00N 59°56' E 028°37'0 0.0
2017-Dec-02 11:30N 59°56' E 028°37'0 0.0
2017-Dec-02 11:00N 59°56' E 028°37'0 0.0
2017-Dec-02 10:30N 59°56' E 028°37'0 0.0
2017-Dec-02 10:00N 59°56' E 028°37'0 0.0
2017-Dec-02 09:30N 59°56' E 028°37'0 0.0
2017-Dec-02 09:00N 59°56' E 028°37'0 0.0
2017-Dec-02 08:30N 59°56' E 028°37'0 0.0
2017-Dec-02 08:00N 59°56' E 028°37'0 0.0
2017-Dec-02 07:30N 59°56' E 028°37'0 0.0
2017-Dec-02 07:00N 59°56' E 028°37'0 0.0
2017-Dec-02 06:30N 59°56' E 028°37'0 0.2
2017-Dec-02 06:00N 59°56' E 028°37'0 0.1
2017-Dec-02 05:30N 59°56' E 028°37'0 0.0
2017-Dec-02 05:00N 59°56' E 028°37'0 0.0
2017-Dec-02 04:30N 59°56' E 028°37'0 0.0
2017-Dec-02 04:00N 59°56' E 028°37'0 0.0
2017-Dec-02 03:30N 59°56' E 028°37'0 0.0
2017-Dec-02 03:00N 59°56' E 028°37'0 0.0
2017-Dec-02 02:30N 59°56' E 028°37'0 0.0
2017-Dec-02 02:00N 59°56' E 028°37'0 0.0
2017-Dec-02 01:30N 59°56' E 028°37'0 0.0
2017-Dec-02 01:00N 59°56' E 028°37'0 0.0
2017-Dec-02 00:30N 59°56' E 028°37'0 0.0
2017-Dec-02 00:00N 59°56' E 028°37'0 0.0
2017-Dec-01 23:30N 59°56' E 028°37'0 0.0
2017-Dec-01 23:00N 59°56' E 028°37'0 0.0
2017-Dec-01 22:30N 59°56' E 028°37'0 0.0
2017-Dec-01 22:01N 59°56' E 028°37'0 0.0
2017-Dec-01 21:30N 59°56' E 028°37'0 0.0
2017-Dec-01 21:00N 59°56' E 028°37'0 0.0
2017-Dec-01 20:30N 59°56' E 028°37'0 0.0
2017-Dec-01 20:00N 59°56' E 028°37'0 0.0
2017-Dec-01 19:30N 59°56' E 028°37'0 0.0
2017-Dec-01 19:00N 59°56' E 028°37'0 0.0
2017-Dec-01 18:30N 59°56' E 028°37'0 0.0
2017-Dec-01 18:00N 59°56' E 028°37'0 0.0
2017-Dec-01 17:30N 59°56' E 028°37'0 0.0
2017-Dec-01 17:00N 59°56' E 028°37'0 0.0
2017-Dec-01 16:30N 59°56' E 028°37'0 0.0
2017-Dec-01 16:00N 59°56' E 028°37'0 0.0
2017-Dec-01 15:28N 59°56' E 028°37'0 0.0
2017-Dec-01 15:00N 59°56' E 028°37'0 0.0
2017-Dec-01 14:31N 59°56' E 028°37'0 0.0
2017-Dec-01 14:00N 59°56' E 028°37'0 0.0
2017-Dec-01 13:30N 59°56' E 028°37'0 0.0
2017-Dec-01 13:00N 59°56' E 028°37'0 0.0
2017-Dec-01 12:30N 59°56' E 028°37'0 0.0
2017-Dec-01 12:00N 59°56' E 028°37'0 0.0
2017-Dec-01 11:30N 59°56' E 028°37'0 0.0
2017-Dec-01 11:00N 59°56' E 028°37'0 0.0
2017-Dec-01 10:30N 59°56' E 028°37'  

Dump ship's entire track history